createdAt,value
2017-12-10T18:16:43.280Z,972.19
2017-12-10T18:17:25.659Z,972.24
2017-12-10T18:18:06.134Z,972.28
2017-12-10T18:18:46.693Z,972.67
2017-12-10T18:19:27.203Z,972.35
2017-12-10T18:20:07.813Z,972.37
2017-12-10T18:20:48.326Z,972.28
2017-12-10T18:21:28.929Z,972.3
2017-12-10T18:22:09.489Z,972.42
2017-12-10T18:22:49.874Z,972.45
2017-12-10T18:23:30.390Z,972.36
2017-12-10T18:24:10.909Z,972.27
2017-12-10T18:24:51.605Z,972.46
2017-12-10T18:25:32.340Z,972.39
2017-12-10T18:29:05.227Z,972.22
2017-12-10T18:29:45.608Z,972.18
2017-12-10T18:30:28.071Z,972.4
2017-12-10T18:31:11.586Z,972.51
2017-12-10T18:31:53.041Z,972.49
2017-12-10T18:32:33.744Z,972.51
2017-12-10T18:33:14.630Z,972.41
2017-12-10T18:33:55.345Z,972.5
2017-12-10T18:34:35.961Z,972.44
2017-12-10T18:35:16.518Z,972.56
2017-12-10T18:35:57.335Z,972.46
2017-12-10T18:36:37.887Z,972.47
2017-12-10T18:37:18.608Z,972.46
2017-12-10T18:37:59.364Z,972.5
2017-12-10T18:38:39.888Z,972.62
2017-12-10T18:39:20.807Z,972.47
2017-12-10T18:40:01.368Z,972.55
2017-12-10T18:40:42.462Z,972.55
2017-12-10T18:41:23.079Z,972.4
2017-12-10T18:42:03.653Z,972.41
2017-12-10T18:42:45.257Z,972.47
2017-12-10T18:43:30.838Z,972.49
2017-12-10T18:57:23.080Z,972.4
2017-12-10T18:58:05.110Z,972.46
2017-12-10T18:58:46.023Z,972.55
2017-12-10T18:59:26.372Z,972.4
2017-12-10T19:00:06.884Z,972.49
2017-12-10T19:00:47.412Z,972.41
2017-12-10T19:01:28.031Z,972.33
2017-12-10T19:02:08.528Z,972.31
2017-12-10T19:02:49.223Z,972.3
2017-12-10T19:03:29.854Z,972.56
2017-12-10T19:04:10.401Z,972.51
2017-12-10T19:04:50.919Z,972.51
2017-12-10T19:05:31.455Z,972.44
2017-12-10T19:06:12.011Z,972.51
2017-12-10T19:06:55.298Z,972.59
2017-12-10T19:07:35.850Z,972.53
2017-12-10T19:08:16.537Z,972.58
2017-12-10T19:08:57.431Z,972.65
2017-12-10T19:09:38.616Z,972.73
2017-12-10T19:10:23.324Z,972.6
2017-12-10T19:11:04.810Z,972.71
2017-12-10T19:11:55.619Z,972.62
2017-12-10T19:12:43.590Z,972.59
2017-12-10T19:13:36.085Z,972.46
2017-12-10T19:14:18.999Z,972.38
2017-12-10T19:14:59.739Z,972.38
2017-12-10T19:15:44.151Z,972.36
2017-12-10T19:16:26.675Z,972.33
2017-12-10T19:17:09.359Z,972.39
2017-12-10T19:17:55.319Z,972.38
2017-12-10T19:21:38.214Z,972.58
2017-12-10T19:22:19.197Z,972.53
2017-12-10T19:23:04.317Z,972.54
2017-12-10T19:23:46.259Z,972.51
2017-12-10T19:24:26.922Z,972.51
2017-12-10T19:25:08.521Z,972.47
2017-12-10T19:26:02.015Z,972.65
2017-12-10T19:26:46.981Z,972.61
2017-12-10T19:27:27.738Z,972.55
2017-12-10T19:28:09.361Z,972.66
2017-12-10T19:28:50.526Z,972.54
2017-12-10T19:29:31.878Z,972.57
2017-12-10T19:30:12.671Z,972.58
2017-12-10T19:32:30.622Z,972.61
2017-12-10T19:33:11.105Z,972.62
2017-12-10T19:33:51.779Z,972.51
2017-12-10T19:34:32.212Z,972.64
2017-12-10T19:35:13.156Z,972.5
2017-12-10T19:35:53.989Z,972.54
2017-12-10T19:36:34.557Z,972.53
2017-12-10T19:37:17.131Z,972.76
2017-12-10T19:37:57.300Z,972.63
2017-12-10T19:38:38.685Z,972.69
2017-12-10T19:39:18.973Z,972.6
2017-12-10T19:40:01.116Z,972.54
2017-12-10T19:40:41.585Z,972.53
2017-12-10T19:41:22.669Z,972.48
2017-12-10T19:42:08.367Z,972.64
2017-12-10T19:42:48.896Z,972.54
2017-12-10T19:43:29.439Z,972.44
2017-12-10T19:44:10.047Z,972.68
2017-12-10T19:44:50.722Z,972.52
2017-12-10T19:45:31.253Z,972.56
2017-12-10T19:46:11.815Z,972.49
2017-12-10T19:47:04.347Z,972.66
2017-12-10T19:47:49.696Z,972.57
2017-12-10T19:48:30.599Z,972.66
2017-12-10T19:49:12.811Z,972.97
2017-12-10T19:49:53.409Z,972.96
2017-12-10T19:50:34.028Z,972.56
2017-12-10T19:51:14.499Z,972.55
2017-12-10T19:51:55.134Z,972.62
2017-12-10T19:52:35.735Z,972.46
2017-12-10T19:53:16.462Z,972.57
2017-12-10T19:53:57.004Z,972.65
2017-12-10T19:54:39.424Z,972.46
2017-12-10T19:55:20.134Z,972.48
2017-12-10T19:56:00.935Z,972.5
2017-12-10T19:56:43.563Z,972.51
2017-12-10T19:57:27.014Z,972.48
2017-12-10T19:58:07.877Z,972.51
2017-12-10T19:58:54.497Z,972.48
2017-12-10T19:59:38.953Z,972.52
2017-12-10T20:00:21.520Z,972.56
2017-12-10T20:01:10.090Z,972.44
2017-12-10T20:01:53.763Z,972.29
2017-12-10T20:02:41.726Z,972.32
2017-12-10T20:03:24.014Z,972.46
2017-12-10T20:04:08.454Z,972.42
2017-12-10T20:04:52.338Z,972.45
2017-12-10T20:05:37.347Z,972.51
2017-12-10T20:06:19.558Z,972.52
2017-12-10T20:07:02.175Z,972.56
2017-12-10T20:07:46.587Z,972.41
2017-12-10T20:08:28.932Z,972.49
2017-12-10T20:09:11.384Z,972.7
2017-12-10T20:09:53.564Z,972.52
2017-12-10T20:10:34.195Z,972.51
2017-12-10T20:11:14.759Z,972.49
2017-12-10T20:11:59.548Z,972.54
2017-12-10T20:12:56.082Z,972.5
2017-12-10T20:13:38.652Z,972.55
2017-12-10T20:14:20.740Z,972.54
2017-12-10T20:15:01.393Z,972.59
2017-12-10T20:15:41.946Z,972.67
2017-12-10T20:16:22.494Z,972.62
2017-12-10T20:17:03.250Z,972.74
2017-12-10T20:17:43.819Z,972.75
2017-12-10T20:18:24.604Z,972.69
2017-12-10T20:19:06.965Z,972.6
2017-12-10T20:19:47.768Z,972.81
2017-12-10T20:20:34.367Z,972.62
2017-12-10T20:21:18.804Z,972.76
2017-12-10T20:22:02.833Z,972.74
2017-12-10T20:22:54.742Z,972.77
2017-12-10T20:23:35.431Z,972.77
2017-12-10T20:24:15.864Z,972.85
2017-12-10T20:24:58.436Z,972.88
2017-12-10T20:25:39.005Z,973.21
2017-12-10T20:26:25.286Z,972.87
2017-12-10T20:27:05.922Z,972.84
2017-12-10T20:27:52.363Z,972.93
2017-12-10T20:28:35.257Z,972.79
2017-12-10T20:29:15.896Z,972.94
2017-12-10T20:29:56.448Z,972.91
2017-12-10T20:30:37.161Z,973.02
2017-12-10T20:31:21.671Z,972.84
2017-12-10T20:32:05.918Z,972.85
2017-12-10T20:32:50.864Z,972.78
2017-12-10T20:33:34.509Z,972.91
2017-12-10T20:34:17.831Z,972.95
2017-12-10T20:34:58.475Z,972.91
2017-12-10T20:35:39.170Z,972.88
2017-12-10T20:36:19.591Z,972.88
2017-12-10T20:37:00.526Z,972.87
2017-12-10T20:37:43.806Z,972.91
2017-12-10T20:38:24.454Z,972.9
2017-12-10T20:39:05.318Z,973.08
2017-12-10T20:39:45.756Z,972.99
2017-12-10T20:40:32.413Z,972.94
2017-12-10T20:41:15.166Z,973.09
2017-12-10T20:42:06.494Z,972.99
2017-12-10T20:42:58.124Z,973.08
2017-12-10T20:43:40.596Z,973.13
2017-12-10T20:44:21.195Z,972.94
2017-12-10T20:45:06.417Z,972.91
2017-12-10T20:45:50.215Z,972.96
2017-12-10T20:46:33.843Z,973.14
2017-12-10T20:47:19.291Z,973.04
2017-12-10T20:48:03.938Z,973.02
2017-12-10T20:48:44.745Z,973.18
2017-12-10T20:49:25.230Z,973.22
2017-12-10T20:50:05.753Z,973.08
2017-12-10T20:50:46.244Z,973.17
2017-12-10T20:51:26.752Z,973.04
2017-12-10T20:52:07.317Z,973.03
2017-12-10T20:52:52.642Z,973
2017-12-10T20:53:37.832Z,973.23
2017-12-10T20:54:22.228Z,973.2
2017-12-10T20:55:02.718Z,973.14
2017-12-10T20:55:43.728Z,973.18
2017-12-10T20:56:24.293Z,973.25
2017-12-10T20:57:04.768Z,973.42
2017-12-10T20:57:45.347Z,973.17
2017-12-10T20:58:25.814Z,973.19
2017-12-10T20:59:06.314Z,973.24
2017-12-10T20:59:46.864Z,973.43
2017-12-10T21:00:27.382Z,973.38
2017-12-10T21:01:07.875Z,973.39
2017-12-10T21:01:48.391Z,973.56
2017-12-10T21:02:28.940Z,973.53
2017-12-10T21:03:09.409Z,973.37
2017-12-10T21:03:49.930Z,973.42
2017-12-10T21:04:30.554Z,973.49
2017-12-10T21:05:11.013Z,973.35
2017-12-10T21:05:51.542Z,973.43
2017-12-10T21:06:32.153Z,973.51
2017-12-10T21:07:13.045Z,973.42
2017-12-10T21:07:53.671Z,973.49
2017-12-10T21:08:34.193Z,973.53
2017-12-10T21:09:16.825Z,973.53
2017-12-10T21:09:59.123Z,973.48
2017-12-10T21:10:39.640Z,973.5
2017-12-10T21:11:20.196Z,973.5
2017-12-10T21:12:00.739Z,973.53
2017-12-10T21:12:41.391Z,973.48
2017-12-10T21:13:22.203Z,973.46
2017-12-10T21:14:04.673Z,973.52
2017-12-10T21:14:45.178Z,973.48
2017-12-10T21:15:25.873Z,973.42
2017-12-10T21:16:06.388Z,973.61
2017-12-10T21:16:46.900Z,973.58
2017-12-10T21:17:27.413Z,973.53
2017-12-10T21:18:07.962Z,973.52
2017-12-10T21:18:48.471Z,973.57
2017-12-10T21:19:28.973Z,973.6
2017-12-10T21:20:09.513Z,973.6
2017-12-10T21:20:50.211Z,973.66
2017-12-10T21:21:30.782Z,973.57
2017-12-10T21:22:13.343Z,973.61
2017-12-10T21:22:53.818Z,973.65
2017-12-10T21:23:34.336Z,973.59
2017-12-10T21:24:14.888Z,973.71
2017-12-10T21:24:55.423Z,973.56
2017-12-10T21:25:36.024Z,973.61
2017-12-10T21:26:16.607Z,973.8
2017-12-10T21:27:01.289Z,973.74
2017-12-10T21:27:41.740Z,973.67
2017-12-10T21:28:22.247Z,973.84
2017-12-10T21:29:02.752Z,973.67
2017-12-10T21:29:43.338Z,973.75
2017-12-10T21:30:28.541Z,973.75
2017-12-10T21:31:09.103Z,973.7
2017-12-10T21:31:50.194Z,973.71
2017-12-10T21:32:30.738Z,973.73
2017-12-10T21:33:11.400Z,973.75
2017-12-10T21:33:51.953Z,973.83
2017-12-10T21:34:32.545Z,973.8
2017-12-10T21:35:15.552Z,973.95
2017-12-10T21:35:56.130Z,973.86
2017-12-10T21:36:36.694Z,974.18
2017-12-10T21:37:24.305Z,973.94
2017-12-10T21:38:08.284Z,974.02
2017-12-10T21:38:54.607Z,974.03
2017-12-10T21:39:37.350Z,974
2017-12-10T21:40:25.583Z,973.89
2017-12-10T21:41:09.965Z,974
2017-12-10T21:41:56.170Z,973.89
2017-12-10T21:42:40.250Z,973.83
2017-12-10T21:43:24.212Z,973.86
2017-12-10T21:44:10.217Z,973.94
2017-12-10T21:44:56.127Z,974.1
2017-12-10T21:45:40.176Z,973.94
2017-12-10T21:46:23.185Z,974.09
2017-12-10T21:47:07.648Z,973.9
2017-12-10T21:47:55.970Z,974.02
2017-12-10T21:48:38.525Z,973.82
2017-12-10T21:49:23.429Z,974.02
2017-12-10T21:50:08.358Z,974.01
2017-12-10T21:50:53.122Z,973.75
2017-12-10T21:51:34.097Z,973.98
2017-12-10T21:52:16.721Z,973.88
2017-12-10T21:52:59.051Z,973.97
2017-12-10T21:53:47.274Z,974.2
2017-12-10T21:54:36.254Z,973.92
2017-12-10T21:55:20.315Z,973.99
2017-12-10T21:56:06.048Z,973.98
2017-12-10T21:56:50.867Z,974.02
2017-12-10T21:57:34.726Z,973.97
2017-12-10T21:58:21.906Z,973.98
2017-12-10T21:59:03.083Z,974.16
2017-12-10T21:59:45.441Z,974.14
2017-12-10T22:00:28.764Z,974.11
2017-12-10T22:01:11.256Z,974.21
2017-12-10T22:01:51.997Z,974.13
2017-12-10T22:02:34.618Z,974.22
2017-12-10T22:03:18.112Z,974.22
2017-12-10T22:04:02.068Z,974.28
2017-12-10T22:04:49.949Z,974.31
2017-12-10T22:05:33.988Z,974.33
2017-12-10T22:06:17.594Z,974.34
2017-12-10T22:07:03.210Z,974.36
2017-12-10T22:07:43.807Z,974.55
2017-12-10T22:08:24.929Z,974.5
2017-12-10T22:09:05.397Z,974.47
2017-12-10T22:09:49.154Z,974.4
2017-12-10T22:10:33.390Z,974.42
2017-12-10T22:11:16.730Z,974.51
2017-12-10T22:12:05.352Z,974.55
2017-12-10T22:12:46.195Z,974.71
2017-12-10T22:13:26.855Z,974.62
2017-12-10T22:14:09.296Z,974.61
2017-12-10T22:14:50.800Z,974.59
2017-12-10T22:15:31.598Z,974.54
2017-12-10T22:16:20.980Z,974.64
2017-12-10T22:17:03.364Z,974.64
2017-12-10T22:17:49.858Z,974.68
2017-12-10T22:18:30.627Z,974.72
2017-12-10T22:19:15.691Z,974.78
2017-12-10T22:20:02.083Z,974.69
2017-12-10T22:20:42.409Z,974.76
2017-12-10T22:21:23.990Z,974.76
2017-12-10T22:22:06.380Z,974.94
2017-12-10T22:22:47.014Z,974.8
2017-12-10T22:23:27.542Z,974.88
2017-12-10T22:24:11.870Z,974.91
2017-12-10T22:24:54.692Z,975.01
2017-12-10T22:25:35.257Z,974.89
2017-12-10T22:26:19.327Z,974.94
2017-12-10T22:26:59.841Z,974.97
2017-12-10T22:27:40.895Z,975.21
2017-12-10T22:28:21.570Z,975.01
2017-12-10T22:29:02.508Z,974.95
2017-12-10T22:29:43.445Z,974.98
2017-12-10T22:30:27.241Z,974.99
2017-12-10T22:31:10.996Z,974.9
2017-12-10T22:31:51.883Z,975.03
2017-12-10T22:32:32.404Z,975
2017-12-10T22:33:13.093Z,975.01
2017-12-10T22:33:56.208Z,975.11
2017-12-10T22:34:41.161Z,975.11
2017-12-10T22:35:25.018Z,975.05
2017-12-10T22:36:06.482Z,975.07
2017-12-10T22:36:49.752Z,975.06
2017-12-10T22:37:33.089Z,975.05
2017-12-10T22:38:17.008Z,975.17
2017-12-10T22:39:00.832Z,975.08
2017-12-10T22:39:43.551Z,975.18
2017-12-10T22:40:27.533Z,975.19
2017-12-10T22:41:08.670Z,975.27
2017-12-10T22:41:56.088Z,975.43
2017-12-10T22:42:39.459Z,975.39
2017-12-10T22:43:20.219Z,975.35
2017-12-10T22:44:00.638Z,975.28
2017-12-10T22:44:43.363Z,975.27
2017-12-10T22:45:26.953Z,975.32
2017-12-10T22:46:07.780Z,975.38
2017-12-10T22:46:48.268Z,975.45
2017-12-10T22:47:29.060Z,975.48
2017-12-10T22:48:09.717Z,975.43
2017-12-10T22:48:52.400Z,975.51
2017-12-10T22:49:36.168Z,975.6
2017-12-10T22:50:18.308Z,975.66
2017-12-10T22:51:00.842Z,975.66
2017-12-10T22:51:45.679Z,975.8
2017-12-10T22:52:31.022Z,975.75
2017-12-10T22:53:11.589Z,975.77
2017-12-10T22:53:52.455Z,975.76
2017-12-10T22:54:35.133Z,975.87
2017-12-10T22:55:19.886Z,975.87
2017-12-10T22:56:06.951Z,975.94
2017-12-10T22:56:48.188Z,975.94
2017-12-10T22:57:29.019Z,975.92
2017-12-10T22:58:09.788Z,975.93
2017-12-10T22:58:50.421Z,975.86
2017-12-10T22:59:31.124Z,975.89
2017-12-10T23:00:12.683Z,975.96
2017-12-10T23:00:54.844Z,976.04
2017-12-10T23:01:35.338Z,976.02
2017-12-10T23:02:15.847Z,976.03
2017-12-10T23:02:56.386Z,976.05
2017-12-10T23:03:36.898Z,976.06
2017-12-10T23:04:17.891Z,976.13
2017-12-10T23:04:58.351Z,976.18
2017-12-10T23:05:39.007Z,976.22
2017-12-10T23:06:19.460Z,976.23
2017-12-10T23:06:59.993Z,976.24
2017-12-10T23:07:40.536Z,976.29
2017-12-10T23:08:21.207Z,976.31
2017-12-10T23:09:01.746Z,976.29
2017-12-10T23:09:42.292Z,976.3
2017-12-10T23:10:22.840Z,976.31
2017-12-10T23:11:03.326Z,976.33
2017-12-10T23:11:43.901Z,976.37
2017-12-10T23:12:24.453Z,976.39
2017-12-10T23:13:04.958Z,976.4
2017-12-10T23:13:47.975Z,976.39
2017-12-10T23:14:28.602Z,976.41
2017-12-10T23:15:09.182Z,976.41
2017-12-10T23:15:51.559Z,976.41
2017-12-10T23:16:32.094Z,976.4
2017-12-10T23:17:12.870Z,976.35
2017-12-10T23:17:53.803Z,976.31
2017-12-10T23:18:34.487Z,976.39
2017-12-10T23:19:14.995Z,976.46
2017-12-10T23:19:55.527Z,976.46
2017-12-10T23:20:36.072Z,976.49
2017-12-10T23:21:16.686Z,976.53
2017-12-10T23:21:57.347Z,976.55
2017-12-10T23:22:37.930Z,976.52
2017-12-10T23:23:18.407Z,976.5
2017-12-10T23:23:59.046Z,976.55
2017-12-10T23:24:39.547Z,976.51
2017-12-10T23:25:20.053Z,976.47
2017-12-10T23:26:00.575Z,976.46
2017-12-10T23:26:41.098Z,976.54
2017-12-10T23:27:21.632Z,976.52
2017-12-10T23:28:02.253Z,976.55
2017-12-10T23:28:42.736Z,976.59
2017-12-10T23:29:23.301Z,976.66
2017-12-10T23:30:03.848Z,976.63
2017-12-10T23:30:44.399Z,976.61
2017-12-10T23:31:24.871Z,976.52
2017-12-10T23:32:05.462Z,976.55
2017-12-10T23:32:46.004Z,976.68
2017-12-10T23:33:26.568Z,976.78
2017-12-10T23:34:07.160Z,976.81
2017-12-10T23:34:47.712Z,976.85
2017-12-10T23:35:28.191Z,976.83
2017-12-10T23:36:08.814Z,976.9
2017-12-10T23:36:49.255Z,977.03
2017-12-10T23:37:29.841Z,977.02
2017-12-10T23:38:10.376Z,976.98
2017-12-10T23:38:50.939Z,976.95
2017-12-10T23:39:31.424Z,976.97
2017-12-10T23:40:12.006Z,976.89
2017-12-10T23:40:52.556Z,976.92
2017-12-10T23:41:33.173Z,977.03
2017-12-10T23:42:13.661Z,977.11
2017-12-10T23:42:54.221Z,977.15
2017-12-10T23:43:34.709Z,977.18
2017-12-10T23:44:15.272Z,977.23
2017-12-10T23:44:55.873Z,977.28
2017-12-10T23:45:38.461Z,977.3
2017-12-10T23:46:18.970Z,977.31
2017-12-10T23:46:59.593Z,977.28
2017-12-10T23:47:40.046Z,977.28
2017-12-10T23:48:20.617Z,977.28
2017-12-10T23:49:01.197Z,977.36
2017-12-10T23:49:41.729Z,977.31
2017-12-10T23:50:22.327Z,977.3
2017-12-10T23:51:02.869Z,977.4
2017-12-10T23:51:43.364Z,977.43
2017-12-10T23:52:24.036Z,977.4
2017-12-10T23:53:04.617Z,977.39
2017-12-10T23:53:45.087Z,977.42
2017-12-10T23:54:25.624Z,977.46
2017-12-10T23:55:06.158Z,977.52
2017-12-10T23:55:46.770Z,977.54
2017-12-10T23:56:27.347Z,977.55
2017-12-10T23:57:07.943Z,977.59
2017-12-10T23:57:48.516Z,977.63
2017-12-10T23:58:29.240Z,977.66
2017-12-10T23:59:09.780Z,977.7
2017-12-10T23:59:50.343Z,977.67
